createdAt,value
2022-10-25T00:20:15.442Z,19.50
2022-10-25T04:28:33.127Z,16.60
2022-10-25T04:32:55.619Z,16.60
2022-10-25T04:37:29.282Z,16.60
2022-10-25T04:41:57.955Z,16.60
2022-10-25T04:47:21.568Z,16.60
2022-10-25T04:52:23.042Z,16.70
2022-10-25T05:51:14.506Z,16.70
2022-10-25T06:50:32.906Z,17.20
2022-10-25T06:56:16.062Z,17.40
2022-10-25T07:02:34.587Z,17.60
2022-10-25T07:07:27.002Z,17.80
2022-10-25T07:12:52.550Z,18.00
2022-10-25T07:35:17.461Z,18.70
2022-10-25T07:39:54.151Z,18.80
2022-10-25T07:50:07.736Z,19.00
2022-10-25T07:54:16.311Z,19.20
2022-10-25T07:58:43.946Z,19.20
2022-10-25T08:02:49.297Z,19.20
2022-10-25T08:06:58.199Z,19.20
2022-10-25T08:11:10.681Z,19.40
2022-10-25T08:26:16.255Z,19.60
2022-10-25T08:35:40.480Z,19.80
2022-10-25T08:40:14.468Z,19.90
2022-10-25T08:45:28.168Z,20.00
2022-10-25T08:50:36.097Z,20.00
2022-10-25T09:00:17.951Z,20.30
2022-10-25T09:04:53.452Z,20.50
2022-10-25T09:09:49.734Z,20.50
2022-10-25T09:14:42.563Z,20.60
2022-10-25T09:20:37.798Z,20.50
2022-10-25T09:25:42.703Z,20.50
2022-10-25T09:30:57.068Z,20.60
2022-10-25T09:36:02.150Z,20.80
2022-10-25T10:25:15.065Z,22.70
2022-10-25T10:44:15.581Z,23.00
2022-10-25T10:50:03.310Z,23.00
2022-10-25T10:54:42.791Z,23.10
2022-10-25T11:09:55.161Z,23.50
2022-10-25T11:27:17.946Z,24.10
2022-10-25T11:32:42.668Z,24.40
2022-10-25T11:42:44.680Z,24.40
2022-10-25T14:05:59.445Z,25.10
2022-10-25T16:00:27.080Z,23.50
2022-10-25T17:08:48.752Z,21.30
2022-10-25T17:13:17.218Z,21.20
2022-10-25T19:04:29.619Z,19.30
2022-10-25T19:15:18.452Z,19.30
2022-10-25T19:19:36.173Z,19.10
2022-10-25T19:23:46.382Z,19.10
2022-10-25T19:28:01.471Z,19.00
2022-10-25T19:44:24.957Z,18.70
2022-10-25T20:01:24.565Z,18.50
2022-10-25T20:06:30.340Z,18.50
2022-10-25T20:10:34.970Z,18.40
2022-10-25T20:14:42.630Z,18.30
2022-10-25T20:18:55.394Z,18.30
2022-10-25T20:23:01.013Z,18.30
2022-10-25T20:27:12.962Z,18.30
2022-10-25T20:31:29.976Z,18.30
2022-10-25T20:36:13.636Z,18.30
2022-10-25T20:41:49.843Z,18.20
2022-10-25T20:45:51.642Z,18.10
2022-10-25T20:49:55.261Z,18.00
2022-10-25T20:54:01.025Z,18.00
2022-10-25T20:58:09.155Z,18.00
2022-10-25T21:03:19.985Z,18.00
2022-10-25T21:06:43.415Z,17.90
2022-10-25T21:11:01.458Z,17.90
2022-10-25T21:15:12.117Z,17.90
2022-10-25T21:19:18.101Z,17.90
2022-10-25T21:23:29.626Z,17.90
2022-10-25T21:27:32.850Z,17.80
2022-10-25T21:31:38.490Z,17.80
2022-10-25T21:35:46.142Z,17.80
2022-10-25T21:39:52.215Z,17.80
2022-10-25T21:44:02.806Z,17.80
2022-10-25T21:48:06.248Z,17.80
2022-10-25T21:52:09.357Z,17.70
2022-10-25T21:56:14.662Z,17.70
2022-10-25T22:00:17.705Z,17.60
2022-10-25T22:04:21.101Z,17.60
2022-10-25T22:08:24.138Z,17.60
2022-10-25T22:12:27.308Z,17.50
2022-10-25T22:16:31.621Z,17.50
2022-10-25T22:20:34.550Z,17.50
2022-10-25T22:24:37.491Z,17.50
2022-10-25T22:28:41.466Z,17.50
2022-10-25T22:32:44.664Z,17.50
2022-10-25T22:36:48.366Z,17.50
2022-10-25T22:41:02.805Z,17.50
2022-10-25T22:45:05.998Z,17.50
2022-10-25T22:49:09.702Z,17.50
2022-10-25T22:53:12.853Z,17.50
2022-10-25T22:57:16.302Z,17.40
2022-10-25T23:01:33.542Z,17.40
2022-10-25T23:05:36.530Z,17.40
2022-10-25T23:09:39.493Z,17.30
2022-10-25T23:13:42.772Z,17.40
2022-10-25T23:21:48.951Z,17.30
2022-10-25T23:25:52.613Z,17.30
2022-10-25T23:29:55.726Z,17.30
2022-10-25T23:34:00.611Z,17.30
2022-10-25T23:38:03.818Z,17.30
2022-10-25T23:42:06.933Z,17.30
2022-10-25T23:46:10.683Z,17.30
2022-10-25T23:50:13.662Z,17.20
2022-10-25T23:54:16.665Z,17.20
2022-10-25T23:58:20.575Z,17.20
